WetterOnline ( https://www.wetteronline.de )

Wetter aktuell Lasa

Aktuelles Wetter: Reschenpass (1461m)

6-stündlich | Neueste Meldungen
Ortszeit Temperatur Wetter
Di, 22.09. 20:00 13.6° C bedeckt
Di, 22.09. 14:00 14.4° C bewölkt
Di, 22.09. 8:00 13.4° C leichter Regen
Di, 22.09. 2:00 13.6° C leichter Regen
Mo, 21.09. 20:00 15.8° C bedeckt
Mo, 21.09. 14:00 17.0° C bedeckt
Mo, 21.09. 8:00 13.6° C bedeckt
Mo, 21.09. 2:00 14.4° C bewölkt
Ortszeit Temperatur Wetter
Di, 22.09. 23:00 13.6° C bedeckt
Di, 22.09. 22:55 14° C bewölkt
Di, 22.09. 22:00 13.6° C bedeckt
Di, 22.09. 21:55 14° C bewölkt
Di, 22.09. 21:00 13.6° C bedeckt
Di, 22.09. 20:55 14° C bewölkt
Di, 22.09. 20:00 13.6° C bedeckt
Di, 22.09. 19:55 14° C bewölkt
Di, 22.09. 19:00 13.6° C bedeckt
Ortszeit Relative Feuchte Sichtweite
Di, 22.09. 20:00 95% 5.0 km
Di, 22.09. 14:00 75% 10 km
Di, 22.09. 8:00 100% 8 km
Di, 22.09. 2:00 100% 7 km
Mo, 21.09. 20:00 88% 10 km
Mo, 21.09. 14:00 74% 14 km
Mo, 21.09. 8:00 100% 8 km
Mo, 21.09. 2:00 100% 10 km
Ortszeit Relative Feuchte Sichtweite
Di, 22.09. 23:00 100% 5.0 km
Di, 22.09. 22:55 100% 5.0 km
Di, 22.09. 22:00 95% 5.0 km
Di, 22.09. 21:55 94% 5.0 km
Di, 22.09. 21:00 93% 5.0 km
Di, 22.09. 20:55 94% 5.0 km
Di, 22.09. 20:00 95% 5.0 km
Di, 22.09. 19:55 94% 5.0 km
Di, 22.09. 19:00 96% 6 km
Ortszeit Niederschlagsmenge Niederschlagsart
Di, 22.09. 20:00 0.1 l/m2 in 12 Std. -
Di, 22.09. 14:00 0.1 l/m2 in 6 Std. Regen
Di, 22.09. 8:00 13 l/m2 in 12 Std. Regen
Di, 22.09. 2:00 5 l/m2 in 6 Std. Regen
Mo, 21.09. 20:00 0.0 l/m2 in 12 Std. -
Mo, 21.09. 14:00 0.0 l/m2 in 6 Std. -
Mo, 21.09. 8:00 0.0 l/m2 in 12 Std. -
Mo, 21.09. 2:00 0.0 l/m2 in 6 Std. -
Ortszeit Niederschlagsmenge Niederschlagsart
Di, 22.09. 23:00 keine Meldung -
Di, 22.09. 22:55 keine Meldung -
Di, 22.09. 22:00 keine Meldung -
Di, 22.09. 21:55 keine Meldung -
Di, 22.09. 21:00 keine Meldung -
Di, 22.09. 20:55 keine Meldung -
Di, 22.09. 20:00 keine Meldung -
Di, 22.09. 19:55 keine Meldung -
Di, 22.09. 19:00 keine Meldung -
Ortszeit Stärke Spitze Richtung
km/h Bft. km/h Grad Sektor
Di, 22.09. 20:00 7 2 - 210° SW
Di, 22.09. 14:00 13 3 - 170° S
Di, 22.09. 8:00 9 2 - 170° S
Di, 22.09. 2:00 0 0 - - -
Mo, 21.09. 20:00 7 2 - 140° SO
Mo, 21.09. 14:00 13 3 - 170° S
Mo, 21.09. 8:00 6 1 - 190° S
Mo, 21.09. 2:00 7 2 - 160° S
Ortszeit Stärke Spitze Richtung
km/h Bft. km/h Grad Sektor
Di, 22.09. 23:00 7 2 - 150° SO
Di, 22.09. 22:55 7 2 - 150° SO
Di, 22.09. 22:00 6 1 - 200° S
Di, 22.09. 21:55 6 1 - 200° S
Di, 22.09. 21:00 6 1 - 200° S
Di, 22.09. 20:55 6 1 - 200° S
Di, 22.09. 20:00 7 2 - 210° SW
Di, 22.09. 19:55 7 2 - 210° SW
Di, 22.09. 19:00 9 2 - 170° S
Ortszeit Untergrenze Bedeckung Gattung
total tief tief mittel hoch
Di, 22.09. 20:00 210 m 8/8 8/8 St - -
Di, 22.09. 14:00 450 m 7/8 7/8 St - -
Di, 22.09. 8:00 450 m 8/8 8/8 St - -
Di, 22.09. 2:00 300 m 8/8 8/8 St - -
Mo, 21.09. 20:00 600 m 8/8 8/8 Cu - -
Mo, 21.09. 14:00 600 m 8/8 8/8 Cu - -
Mo, 21.09. 8:00 300 m 8/8 8/8 Sc - -
Mo, 21.09. 2:00 600 m 7/8 7/8 Cu - -
Ortszeit Bedeckungsgrad in Achtel und Wolkenuntergrenze
Di, 22.09. 23:00 4(210m) 5(600m)
Di, 22.09. 22:55 3-4(210m) 5-7(600m)
Di, 22.09. 22:00 2(210m) 6(600m)
Di, 22.09. 21:55 1-2(210m) 5-7(600m)
Di, 22.09. 21:00 3(210m) 6(600m)
Di, 22.09. 20:55 3-4(210m) 5-7(600m)
Di, 22.09. 20:00 1(210m) 3(300m) 5(600m)
Di, 22.09. 19:55 1-2(210m) 3-4(300m) 5-7(600m)
Di, 22.09. 19:00 4(270m) 6(600m)
Ortszeit Stationsdruck (hPa) Tendenz (hPa in 3 Std.)
Di, 22.09. 20:00 850 - 1,0
Di, 22.09. 14:00 853 - 0,6
Di, 22.09. 8:00 853 - 0,6
Di, 22.09. 2:00 854 - 0,2
Mo, 21.09. 20:00 854 - 0,3
Mo, 21.09. 14:00 854 - 0,2
Mo, 21.09. 8:00 854 0,0
Mo, 21.09. 2:00 854 + 0,2
Ortszeit Stationsdruck (hPa) Tendenz (hPa in 3 Std.)
Di, 22.09. 23:00 850 0,0
Di, 22.09. 22:55 - keine Meldung
Di, 22.09. 22:00 850 - 0,6
Di, 22.09. 21:55 - keine Meldung
Di, 22.09. 21:00 850 - 1,0
Di, 22.09. 20:55 - keine Meldung
Di, 22.09. 20:00 850 - 1,0
Di, 22.09. 19:55 - keine Meldung
Di, 22.09. 19:00 851 - 1,6
Ortszeit Schneehöhe (cm)
Di, 22.09. 20:00 -
Di, 22.09. 14:00 -
Di, 22.09. 8:00 0
Di, 22.09. 2:00 -
Mo, 21.09. 20:00 -
Mo, 21.09. 14:00 -
Mo, 21.09. 8:00 0
Mo, 21.09. 2:00 -
Ortszeit Schneehöhe (cm)
Di, 22.09. 23:00 -
Di, 22.09. 22:55 -
Di, 22.09. 22:00 -
Di, 22.09. 21:55 -
Di, 22.09. 21:00 -
Di, 22.09. 20:55 -
Di, 22.09. 20:00 -
Di, 22.09. 19:55 -
Di, 22.09. 19:00 -
Link zu dieser Seite / Seite empfehlen

Das Wetter in ...